createdAt,value
2023-03-22T00:02:02.684Z,11.25
2023-03-22T00:04:29.117Z,11.27
2023-03-22T00:06:55.523Z,11.24
2023-03-22T00:09:22.020Z,11.14
2023-03-22T00:11:50.985Z,11.17
2023-03-22T00:14:20.503Z,11.12
2023-03-22T00:16:49.007Z,11.10
2023-03-22T00:19:17.303Z,11.13
2023-03-22T00:21:44.807Z,11.22
2023-03-22T00:24:11.215Z,11.24
2023-03-22T00:26:37.815Z,11.11
2023-03-22T00:29:04.904Z,11.20
2023-03-22T00:31:31.491Z,11.08
2023-03-22T00:33:57.977Z,11.17
2023-03-22T00:36:24.380Z,11.11
2023-03-22T00:38:51.840Z,11.02
2023-03-22T00:41:20.997Z,11.02
2023-03-22T00:43:48.720Z,10.93
2023-03-22T00:46:16.785Z,10.87
2023-03-22T00:48:43.531Z,11.07
2023-03-22T00:51:10.702Z,10.99
2023-03-22T00:53:39.276Z,10.99
2023-03-22T00:56:07.967Z,11.01
2023-03-22T00:58:44.869Z,10.98
2023-03-22T01:01:15.254Z,11.06
2023-03-22T01:03:43.337Z,11.02
2023-03-22T01:06:13.063Z,10.91
2023-03-22T01:08:39.626Z,11.05
2023-03-22T01:11:07.290Z,10.92
2023-03-22T01:13:34.230Z,10.92
2023-03-22T01:16:00.912Z,10.89
2023-03-22T01:18:27.405Z,11.01
2023-03-22T01:20:53.785Z,10.98
2023-03-22T01:23:20.388Z,10.90
2023-03-22T01:25:46.815Z,10.80
2023-03-22T01:28:13.398Z,10.81
2023-03-22T01:30:41.022Z,10.80
2023-03-22T01:33:08.203Z,10.85
2023-03-22T01:35:36.039Z,10.87
2023-03-22T01:38:03.860Z,10.75
2023-03-22T01:40:32.883Z,10.91
2023-03-22T01:43:00.893Z,10.92
2023-03-22T01:45:35.665Z,10.80
2023-03-22T01:48:08.400Z,10.88
2023-03-22T01:50:42.584Z,10.84
2023-03-22T01:53:13.656Z,10.85
2023-03-22T01:55:40.434Z,10.73
2023-03-22T01:58:18.027Z,10.84
2023-03-22T02:00:50.467Z,10.87
2023-03-22T02:03:50.260Z,10.75
2023-03-22T02:06:18.157Z,10.70
2023-03-22T02:25:52.654Z,10.64
2023-03-22T02:28:38.066Z,10.53
2023-03-22T02:31:27.697Z,10.59
2023-03-22T02:34:15.598Z,10.54
2023-03-22T02:36:51.501Z,10.44
2023-03-22T02:39:31.437Z,10.45
2023-03-22T02:42:12.350Z,10.47
2023-03-22T02:45:11.076Z,10.56
2023-03-22T02:47:55.786Z,10.61
2023-03-22T02:50:26.885Z,10.48
2023-03-22T02:52:56.055Z,10.43
2023-03-22T02:55:44.671Z,10.47
2023-03-22T02:58:22.168Z,10.34
2023-03-22T03:00:53.843Z,10.36
2023-03-22T03:03:25.406Z,10.37
2023-03-22T03:05:57.194Z,10.47
2023-03-22T03:08:25.985Z,10.45
2023-03-22T03:10:54.489Z,10.38
2023-03-22T03:13:21.391Z,10.33
2023-03-22T03:15:58.692Z,10.25
2023-03-22T03:18:53.838Z,10.36
2023-03-22T03:22:08.486Z,10.25
2023-03-22T03:24:48.531Z,10.26
2023-03-22T03:27:22.726Z,10.37
2023-03-22T03:29:56.437Z,10.25
2023-03-22T03:32:43.134Z,10.23
2023-03-22T03:35:23.009Z,10.36
2023-03-22T03:37:53.862Z,10.21
2023-03-22T03:40:43.811Z,10.31
2023-03-22T03:43:11.794Z,10.18
2023-03-22T03:45:39.340Z,10.35
2023-03-22T03:48:15.263Z,10.37
2023-03-22T03:50:43.971Z,10.34
2023-03-22T03:53:11.436Z,10.23
2023-03-22T03:55:37.931Z,10.34
2023-03-22T03:58:04.617Z,10.29
2023-03-22T04:00:31.113Z,10.21
2023-03-22T04:03:20.356Z,10.26
2023-03-22T04:06:15.668Z,10.21
2023-03-22T04:08:46.631Z,10.25
2023-03-22T04:11:15.630Z,10.30
2023-03-22T04:13:43.162Z,10.29
2023-03-22T04:16:14.485Z,10.20
2023-03-22T04:18:41.658Z,10.28
2023-03-22T04:21:09.049Z,10.37
2023-03-22T04:23:46.616Z,10.30
2023-03-22T04:26:13.365Z,10.33
2023-03-22T04:28:51.737Z,10.29
2023-03-22T04:31:18.400Z,10.36
2023-03-22T04:33:56.567Z,10.29
2023-03-22T04:36:41.904Z,10.29
2023-03-22T04:39:23.823Z,10.32
2023-03-22T04:42:09.152Z,10.26
2023-03-22T04:44:36.013Z,10.30
2023-03-22T04:47:02.507Z,10.38
2023-03-22T04:49:29.195Z,10.33
2023-03-22T04:51:56.492Z,10.37
2023-03-22T04:54:32.189Z,10.31
2023-03-22T04:56:58.851Z,10.22
2023-03-22T04:59:27.400Z,10.24
2023-03-22T05:01:53.910Z,10.22
2023-03-22T05:04:25.781Z,10.29
2023-03-22T05:06:58.235Z,10.31
2023-03-22T05:09:31.547Z,10.34
2023-03-22T05:11:57.990Z,10.31
2023-03-22T05:14:41.333Z,10.22
2023-03-22T05:17:10.443Z,10.22
2023-03-22T05:19:38.801Z,10.31
2023-03-22T05:22:05.362Z,10.28
2023-03-22T05:24:43.340Z,10.22
2023-03-22T05:27:14.249Z,10.27
2023-03-22T05:29:44.876Z,10.32
2023-03-22T05:32:25.475Z,10.19
2023-03-22T05:34:53.497Z,10.20
2023-03-22T05:37:26.750Z,10.32
2023-03-22T05:39:55.653Z,10.36
2023-03-22T05:42:29.614Z,10.28
2023-03-22T05:44:56.369Z,10.21
2023-03-22T05:47:23.164Z,10.25
2023-03-22T05:49:58.582Z,10.30
2023-03-22T05:52:26.278Z,10.30
2023-03-22T05:55:13.631Z,10.26
2023-03-22T05:57:41.131Z,10.22
2023-03-22T06:00:13.301Z,10.25
2023-03-22T06:02:43.314Z,10.32
2023-03-22T06:05:13.725Z,10.35
2023-03-22T06:07:41.851Z,10.33
2023-03-22T06:10:16.961Z,10.24
2023-03-22T06:12:43.978Z,10.28
2023-03-22T06:15:16.506Z,10.37
2023-03-22T06:17:54.348Z,10.32
2023-03-22T06:20:25.623Z,10.36
2023-03-22T06:22:58.467Z,10.29
2023-03-22T06:25:24.899Z,10.19
2023-03-22T06:27:51.325Z,10.30
2023-03-22T06:30:19.051Z,10.30
2023-03-22T06:33:06.442Z,10.35
2023-03-22T06:35:36.939Z,10.36
2023-03-22T06:38:04.579Z,10.33
2023-03-22T06:40:31.098Z,10.34
2023-03-22T06:42:57.508Z,10.40
2023-03-22T06:45:24.381Z,10.20
2023-03-22T06:47:50.863Z,10.36
2023-03-22T06:50:31.069Z,10.35
2023-03-22T06:53:08.281Z,10.36
2023-03-22T06:55:35.052Z,10.36
2023-03-22T06:58:11.828Z,10.36
2023-03-22T07:00:39.376Z,10.46
2023-03-22T07:03:07.283Z,10.35
2023-03-22T07:05:43.165Z,10.35
2023-03-22T07:08:09.834Z,10.42
2023-03-22T07:10:42.380Z,10.53
2023-03-22T07:13:08.861Z,10.55
2023-03-22T07:15:36.465Z,10.65
2023-03-22T07:18:13.233Z,10.69
2023-03-22T07:20:41.583Z,10.56
2023-03-22T07:23:10.640Z,10.69
2023-03-22T07:25:45.507Z,10.75
2023-03-22T07:28:18.844Z,10.83
2023-03-22T07:30:45.318Z,10.82
2023-03-22T07:33:12.184Z,10.87
2023-03-22T07:35:40.319Z,11.00
2023-03-22T07:38:06.766Z,10.98
2023-03-22T07:40:33.739Z,11.10
2023-03-22T07:43:00.434Z,11.17
2023-03-22T07:45:50.970Z,11.33
2023-03-22T07:48:36.372Z,11.17
2023-03-22T07:51:30.010Z,11.27
2023-03-22T07:53:57.525Z,11.35
2023-03-22T07:56:24.027Z,11.27
2023-03-22T07:58:50.559Z,11.36
2023-03-22T08:01:17.756Z,11.48
2023-03-22T08:04:07.486Z,11.43
2023-03-22T08:06:42.683Z,11.52
2023-03-22T08:09:10.439Z,11.50
2023-03-22T08:11:37.072Z,11.56
2023-03-22T08:14:03.717Z,11.67
2023-03-22T08:16:33.036Z,11.75
2023-03-22T08:19:00.690Z,11.71
2023-03-22T08:21:29.047Z,11.95
2023-03-22T08:23:56.604Z,12.15
2023-03-22T08:26:42.578Z,12.29
2023-03-22T08:29:16.655Z,12.30
2023-03-22T08:31:46.981Z,12.26
2023-03-22T08:34:13.558Z,12.32
2023-03-22T08:36:39.978Z,12.25
2023-03-22T08:39:08.299Z,12.27
2023-03-22T08:41:48.066Z,12.16
2023-03-22T08:44:14.773Z,12.20
2023-03-22T08:46:41.269Z,12.26
2023-03-22T08:49:10.360Z,12.41
2023-03-22T08:51:49.029Z,12.44
2023-03-22T08:54:19.046Z,12.49
2023-03-22T08:57:04.193Z,12.51
2023-03-22T08:59:40.789Z,12.56
2023-03-22T09:02:30.205Z,12.72
2023-03-22T09:04:57.890Z,12.65
2023-03-22T09:07:25.341Z,12.81
2023-03-22T09:10:04.042Z,13.09
2023-03-22T09:12:31.486Z,13.34
2023-03-22T09:14:57.988Z,13.40
2023-03-22T09:17:27.268Z,13.52
2023-03-22T09:20:05.880Z,13.58
2023-03-22T09:22:38.137Z,13.50
2023-03-22T09:25:06.077Z,13.75
2023-03-22T09:27:32.472Z,14.02
2023-03-22T09:30:00.155Z,14.15
2023-03-22T09:32:26.726Z,14.10
2023-03-22T09:34:58.778Z,14.25
2023-03-22T09:37:31.765Z,14.41
2023-03-22T09:39:59.977Z,14.68
2023-03-22T09:42:30.369Z,14.74
2023-03-22T09:45:02.491Z,14.70
2023-03-22T09:47:44.359Z,14.82
2023-03-22T09:50:24.270Z,15.05
2023-03-22T09:52:51.100Z,15.14
2023-03-22T09:55:41.632Z,15.41
2023-03-22T09:58:14.346Z,15.37
2023-03-22T10:00:48.074Z,15.68
2023-03-22T10:03:20.962Z,15.73
2023-03-22T10:05:58.314Z,15.95
2023-03-22T10:08:47.025Z,15.96
2023-03-22T10:11:39.155Z,16.06
2023-03-22T10:14:27.560Z,16.14
2023-03-22T10:16:56.680Z,16.34
2023-03-22T10:19:41.662Z,16.09
2023-03-22T10:22:14.952Z,16.10
2023-03-22T10:24:45.212Z,16.06
2023-03-22T10:27:17.101Z,16.28
2023-03-22T10:30:08.198Z,16.35
2023-03-22T10:32:54.793Z,16.27
2023-03-22T10:35:23.462Z,16.18
2023-03-22T10:37:52.611Z,16.15
2023-03-22T10:40:23.402Z,16.19
2023-03-22T10:42:54.769Z,16.10
2023-03-22T10:45:23.402Z,16.14
2023-03-22T10:48:00.677Z,16.29
2023-03-22T10:50:34.318Z,16.31
2023-03-22T10:53:25.569Z,16.24
2023-03-22T10:55:52.332Z,16.23
2023-03-22T10:58:21.158Z,16.21
2023-03-22T11:00:56.905Z,16.21
2023-03-22T11:03:35.317Z,16.44
2023-03-22T11:06:24.327Z,16.25
2023-03-22T11:08:58.112Z,16.32
2023-03-22T11:11:30.213Z,16.39
2023-03-22T11:14:13.977Z,16.54
2023-03-22T11:16:44.172Z,16.49
2023-03-22T11:19:16.155Z,16.51
2023-03-22T11:21:43.351Z,16.54
2023-03-22T11:24:13.898Z,16.53
2023-03-22T11:26:41.633Z,16.38
2023-03-22T11:29:18.773Z,16.59
2023-03-22T11:32:00.032Z,16.68
2023-03-22T11:34:29.209Z,16.70
2023-03-22T11:36:58.544Z,16.84
2023-03-22T11:39:28.366Z,16.98
2023-03-22T11:41:58.361Z,17.32
2023-03-22T11:44:26.663Z,17.29
2023-03-22T11:47:00.948Z,17.47
2023-03-22T11:49:38.517Z,17.51
2023-03-22T11:52:16.226Z,17.40
2023-03-22T11:54:44.157Z,17.34
2023-03-22T11:57:15.462Z,17.46
2023-03-22T11:59:50.030Z,17.61
2023-03-22T12:02:27.804Z,17.50
2023-03-22T12:05:02.299Z,17.68
2023-03-22T12:07:32.737Z,17.82
2023-03-22T12:10:06.325Z,17.98
2023-03-22T12:12:45.523Z,18.03
2023-03-22T12:15:22.275Z,18.11
2023-03-22T12:17:55.874Z,17.98
2023-03-22T12:20:36.150Z,18.12
2023-03-22T12:23:09.228Z,17.99
2023-03-22T12:25:36.936Z,17.94
2023-03-22T12:28:08.016Z,18.16
2023-03-22T12:30:43.063Z,18.30
2023-03-22T12:33:25.403Z,18.43
2023-03-22T12:35:56.879Z,18.50
2023-03-22T12:38:46.175Z,18.50
2023-03-22T12:41:16.980Z,18.48
2023-03-22T12:43:46.361Z,18.51
2023-03-22T12:46:39.882Z,18.67
2023-03-22T12:49:34.435Z,18.39
2023-03-22T12:52:13.934Z,18.52
2023-03-22T12:54:41.404Z,18.59
2023-03-22T12:57:08.746Z,18.12
2023-03-22T12:59:35.964Z,18.21
2023-03-22T13:02:16.460Z,18.47
2023-03-22T13:04:43.258Z,18.46
2023-03-22T13:07:17.062Z,18.33
2023-03-22T13:09:48.654Z,18.22
2023-03-22T13:12:15.239Z,18.20
2023-03-22T13:14:50.965Z,18.19
2023-03-22T13:17:23.142Z,18.45
2023-03-22T13:20:07.993Z,18.53
2023-03-22T13:22:43.544Z,18.80
2023-03-22T13:25:10.600Z,18.48
2023-03-22T13:27:52.257Z,18.63
2023-03-22T13:30:24.743Z,18.67
2023-03-22T13:33:04.305Z,18.73
2023-03-22T13:35:41.141Z,18.74
2023-03-22T13:38:22.355Z,18.73
2023-03-22T13:41:27.663Z,18.54
2023-03-22T13:43:56.118Z,18.52
2023-03-22T13:46:22.630Z,18.53
2023-03-22T13:48:55.262Z,18.58
2023-03-22T13:51:27.718Z,18.48
2023-03-22T13:54:06.924Z,18.50
2023-03-22T13:56:42.455Z,18.55
2023-03-22T13:59:18.110Z,18.45
2023-03-22T14:01:59.940Z,18.53
2023-03-22T14:04:45.480Z,18.68
2023-03-22T14:07:23.060Z,18.69
2023-03-22T14:10:11.149Z,18.63
2023-03-22T14:13:04.731Z,18.68
2023-03-22T14:16:02.209Z,18.74
2023-03-22T14:18:34.195Z,18.57
2023-03-22T14:21:09.516Z,18.54
